地図

経路データ

SID SEASON NUMBER BASIN SUBBASIN NAME ISO_TIME NATURE LAT LON WMO_WIND WMO_PRES WMO_AGENCY TRACK_TYPE DIST2LAND LANDFALL IFLAG USA_AGENCY USA_ATCF_ID USA_LAT USA_LON USA_RECORD USA_STATUS USA_WIND USA_PRES USA_SSHS USA_R34_NE USA_R34_SE USA_R34_SW USA_R34_NW USA_R50_NE USA_R50_SE USA_R50_SW USA_R50_NW USA_R64_NE USA_R64_SE USA_R64_SW USA_R64_NW USA_POCI USA_ROCI USA_RMW USA_EYE TOKYO_LAT TOKYO_LON TOKYO_GRADE TOKYO_WIND TOKYO_PRES TOKYO_R50_DIR TOKYO_R50_LONG TOKYO_R50_SHORT TOKYO_R30_DIR TOKYO_R30_LONG TOKYO_R30_SHORT TOKYO_LAND CMA_LAT CMA_LON CMA_CAT CMA_WIND CMA_PRES HKO_LAT HKO_LON HKO_CAT HKO_WIND HKO_PRES NEWDELHI_LAT NEWDELHI_LON NEWDELHI_GRADE NEWDELHI_WIND NEWDELHI_PRES NEWDELHI_CI NEWDELHI_DP NEWDELHI_POCI REUNION_LAT REUNION_LON REUNION_TYPE REUNION_WIND REUNION_PRES REUNION_TNUM REUNION_CI REUNION_RMW REUNION_R34_NE REUNION_R34_SE REUNION_R34_SW REUNION_R34_NW REUNION_R50_NE REUNION_R50_SE REUNION_R50_SW REUNION_R50_NW REUNION_R64_NE REUNION_R64_SE REUNION_R64_SW REUNION_R64_NW BOM_LAT BOM_LON BOM_TYPE BOM_WIND BOM_PRES BOM_TNUM BOM_CI BOM_RMW BOM_R34_NE BOM_R34_SE BOM_R34_SW BOM_R34_NW BOM_R50_NE BOM_R50_SE BOM_R50_SW BOM_R50_NW BOM_R64_NE BOM_R64_SE BOM_R64_SW BOM_R64_NW BOM_ROCI BOM_POCI BOM_EYE BOM_POS_METHOD BOM_PRES_METHOD NADI_LAT NADI_LON NADI_CAT NADI_WIND NADI_PRES WELLINGTON_LAT WELLINGTON_LON WELLINGTON_WIND WELLINGTON_PRES DS824_LAT DS824_LON DS824_STAGE DS824_WIND DS824_PRES TD9636_LAT TD9636_LON TD9636_STAGE TD9636_WIND TD9636_PRES TD9635_LAT TD9635_LON TD9635_WIND TD9635_PRES TD9635_ROCI NEUMANN_LAT NEUMANN_LON NEUMANN_CLASS NEUMANN_WIND NEUMANN_PRES MLC_LAT MLC_LON MLC_CLASS MLC_WIND MLC_PRES USA_GUST BOM_GUST BOM_GUST_PER REUNION_GUST REUNION_GUST_PER USA_SEAHGT USA_SEARAD_NE USA_SEARAD_SE USA_SEARAD_SW USA_SEARAD_NW STORM_SPEED STORM_DIR
1970252N15277 1970 111 NA CS ELLA 1970-09-08 12:00:00 TS 15.3000 -83.5000 25 hurdat_atl main 0 0 O_____________ hurdat_atl AL121970 15.3000 -83.5000 TD 25 -1 8 339
1970252N15277 1970 111 NA CS ELLA 1970-09-08 15:00:00 TS 15.6600 -83.6399 main 35 30 P_____________ AL121970 15.6600 -83.6399 TD 25 -1 8 338
1970252N15277 1970 111 NA CS ELLA 1970-09-08 18:00:00 TS 16.0000 -83.8000 25 hurdat_atl main 49 49 O_____________ hurdat_atl AL121970 16.0000 -83.8000 TD 25 -1 7 332
1970252N15277 1970 111 NA CS ELLA 1970-09-08 21:00:00 TS 16.3075 -83.9925 main 64 64 P_____________ AL121970 16.3075 -83.9925 TD 22 -1 7 327
1970252N15277 1970 111 NA CS ELLA 1970-09-09 00:00:00 TS 16.6000 -84.2000 20 hurdat_atl main 90 90 O_____________ hurdat_atl AL121970 16.6000 -84.2000 TD 20 -1 7 327
1970252N15277 1970 111 NA CS ELLA 1970-09-09 03:00:00 TS 16.9075 -84.4000 main 116 116 P_____________ AL121970 16.9075 -84.4000 TD 22 -1 7 327
1970252N15277 1970 111 NA CS ELLA 1970-09-09 06:00:00 TS 17.2000 -84.6000 25 hurdat_atl main 145 145 O_____________ hurdat_atl AL121970 17.2000 -84.6000 TD 25 -1 6 325
1970252N15277 1970 111 NA CS ELLA 1970-09-09 09:00:00 TS 17.4274 -84.7778 main 167 167 P_____________ AL121970 17.4274 -84.7778 TD 25 -1 6 323
1970252N15277 1970 111 NA CS ELLA 1970-09-09 12:00:00 TS 17.7000 -85.0000 25 hurdat_atl main 201 201 O_____________ hurdat_atl AL121970 17.7000 -85.0000 TD 25 -1 9 323
1970252N15277 1970 111 NA CS ELLA 1970-09-09 15:00:00 TS 18.1276 -85.3348 main 246 200 P_____________ AL121970 18.1276 -85.3348 TD 27 -1 11 324
1970252N15277 1970 111 NA CS ELLA 1970-09-09 18:00:00 TS 18.6000 -85.7000 30 1010 hurdat_atl main 200 157 O_____________ hurdat_atl AL121970 18.6000 -85.7000 TD 30 1010 -1 11 324
1970252N15277 1970 111 NA CS ELLA 1970-09-09 21:00:00 TS 19.0224 -86.0151 main 157 115 P_____________ AL121970 19.0224 -86.0151 TD 30 -1 10 325
1970252N15277 1970 111 NA CS ELLA 1970-09-10 00:00:00 TS 19.4000 -86.3000 30 hurdat_atl main 115 94 O_____________ hurdat_atl AL121970 19.4000 -86.3000 TD 30 -1 8 324
1970252N15277 1970 111 NA CS ELLA 1970-09-10 03:00:00 TS 19.6998 -86.5354 main 96 73 P_____________ AL121970 19.6998 -86.5354 TD 30 -1 8 322
1970252N15277 1970 111 NA CS ELLA 1970-09-10 06:00:00 TS 20.0000 -86.8000 30 hurdat_atl main 73 30 O_____________ hurdat_atl AL121970 20.0000 -86.8000 TD 30 -1 9 319
1970252N15277 1970 111 NA CS ELLA 1970-09-10 09:00:00 TS 20.3547 -87.1332 main 23 0 P_____________ AL121970 20.3547 -87.1332 TD 30 -1 11 317
1970252N15277 1970 111 NA NA ELLA 1970-09-10 12:00:00 TS 20.8000 -87.6000 30 hurdat_atl main 0 0 O_____________ hurdat_atl AL121970 20.8000 -87.6000 TD 30 -1 15 315
1970252N15277 1970 111 NA NA ELLA 1970-09-10 15:00:00 TS 21.3848 -88.2249 main 0 0 P_____________ AL121970 21.3848 -88.2249 TD 40 0 18 313
1970252N15277 1970 111 NA GM ELLA 1970-09-10 18:00:00 TS 22.0000 -89.0000 50 997 hurdat_atl main 69 69 O_____________ hurdat_atl AL121970 22.0000 -89.0000 TS 50 997 0 19 307
1970252N15277 1970 111 NA GM ELLA 1970-09-10 21:00:00 TS 22.5449 -89.8700 main 145 145 P_____________ AL121970 22.5449 -89.8700 TS 57 995 0 19 301
1970252N15277 1970 111 NA GM ELLA 1970-09-11 00:00:00 TS 23.0000 -90.8000 65 993 hurdat_atl main 218 218 O_____________ hurdat_atl AL121970 23.0000 -90.8000 HU 65 993 1 19 295
1970252N15277 1970 111 NA GM ELLA 1970-09-11 03:00:00 TS 23.3522 -91.7154 main 294 294 P_____________ AL121970 23.3522 -91.7154 HU 67 1 18 290
1970252N15277 1970 111 NA GM ELLA 1970-09-11 06:00:00 TS 23.6000 -92.6000 70 hurdat_atl main 366 366 O_____________ hurdat_atl AL121970 23.6000 -92.6000 HU 70 1 16 285
1970252N15277 1970 111 NA GM ELLA 1970-09-11 09:00:00 TS 23.7872 -93.4378 main 432 354 P_____________ AL121970 23.7872 -93.4378 HU 72 1 15 282
1970252N15277 1970 111 NA GM ELLA 1970-09-11 12:00:00 TS 23.9000 -94.2000 75 hurdat_atl main 354 285 O_____________ hurdat_atl AL121970 23.9000 -94.2000 HU 75 1 13 278
1970252N15277 1970 111 NA GM ELLA 1970-09-11 15:00:00 TS 23.9797 -94.8951 main 285 229 P_____________ AL121970 23.9797 -94.8951 HU 77 1 12 275
1970252N15277 1970 111 NA GM ELLA 1970-09-11 18:00:00 TS 24.0000 -95.5000 80 984 hurdat_atl main 229 181 O_____________ hurdat_atl AL121970 24.0000 -95.5000 HU 80 984 1 10 269
1970252N15277 1970 111 NA GM ELLA 1970-09-11 21:00:00 TS 23.9647 -96.0302 main 181 132 P_____________ AL121970 23.9647 -96.0302 HU 82 978 1 9 264
1970252N15277 1970 111 NA GM ELLA 1970-09-12 00:00:00 TS 23.9000 -96.5000 85 973 hurdat_atl main 132 81 O_____________ hurdat_atl AL121970 23.9000 -96.5000 HU 85 973 2 9 262
1970252N15277 1970 111 NA GM ELLA 1970-09-12 03:00:00 TS 23.8350 -96.9876 main 81 40 P_____________ AL121970 23.8350 -96.9876 HU 95 970 2 8 263
1970252N15277 1970 111 NA GM ELLA 1970-09-12 06:00:00 TS 23.8000 -97.4000 105 967 hurdat_atl main 40 10 O_____________ hurdat_atl AL121970 23.8000 -97.4000 HU 105 967 3 6 270
1970252N15277 1970 111 NA GM ELLA 1970-09-12 09:00:00 TS 23.8347 -97.6724 main 10 0 P_____________ AL121970 23.8347 -97.6724 HU 107 967 3 5 282
1970252N15277 1970 111 NA NA ELLA 1970-09-12 12:00:00 TS 23.9000 -97.9000 110 967 hurdat_atl main 0 0 O_____________ hurdat_atl AL121970 23.9000 -97.9000 HU 110 967 3 5 286
1970252N15277 1970 111 NA NA ELLA 1970-09-12 15:00:00 TS 23.9647 -98.1549 main 0 0 P_____________ AL121970 23.9647 -98.1549 HU 87 2 6 280
1970252N15277 1970 111 NA NA ELLA 1970-09-12 18:00:00 TS 24.0000 -98.5000 65 hurdat_atl main 0 0 O_____________ hurdat_atl AL121970 24.0000 -98.5000 HU 65 1 8 268
1970252N15277 1970 111 NA NA ELLA 1970-09-12 21:00:00 TS 23.9353 -99.0280 main 0 0 P_____________ AL121970 23.9353 -99.0280 HU 52 0 10 264
1970252N15277 1970 111 NA NA ELLA 1970-09-13 00:00:00 TS 23.9000 -99.6000 40 hurdat_atl main 0 0 O_____________ hurdat_atl AL121970 23.9000 -99.6000 TS 40 0 10 274
1970252N15277 1970 111 NA NA ELLA 1970-09-13 03:00:00 TS 24.0049 -100.082 main 0 0 P_____________ AL121970 24.0049 -100.082 TS 40 0 9 290
1970252N15277 1970 111 NA NA ELLA 1970-09-13 06:00:00 TS 24.2000 -100.500 40 hurdat_atl main 0 O_____________ hurdat_atl AL121970 24.2000 -100.500 TS 40 0 9 297

IBTrACS Databaseについて

本データベースは、米国NOAAが公開する1842年以降の世界の熱帯低気圧のベストトラックデータアーカイブInternational Best Track Archive for Climate Stewardship (IBTrACS)を、ウェブで閲覧しやすい形式に変換したものです。

最終更新日:2021-11-26